Aviation Digital Data Service (ADDS)

Output produced by METARs form (1153 UTC 23 May 2015)
found at http://aviationweather.gov/adds/metars/
 
KHUL 231125Z 2312/2412 30011G16KT P6SM OVC025 
     FM231300 30013G20KT P6SM BKN040 
     FM231600 29017G28KT P6SM BKN050 
     FM232200 28012G20KT P6SM SCT050 
     FM240000 25005KT P6SM SCT250 
     FM240800 22009KT P6SM BKN060